Aeroporto :
LOGIN :

Iscrizione | Disclaimer

   EN    FR    IT 

 










Sommario :    VFR   VFR Marginale   IFR   IFR Intensivo   IFR Molto Intensivo
Visibilità : 
Base nubi : 
>= 8 km
>= 3000ft
5 / 8 km
1000 / 3000 ft
1500m / 5 km
500 / 1000 ft
800 / 1500m
200 / 500 ft
< 800m
< 200 ft
Simboli :   Temporali  Nebbia  Neve Forte  Precipitazioni Forti  Vento > 20 kt
SIGMETs :   Varie  Temporali  Ghiacco  Turbolenza  Onda orograficha  Ceneri Vulcaniche






- Altitudine del aeroporto : -15 ft
- Codice IATA : RTM


EHRD - Rotterdam Zestienhoven

ULTIMO METAR :
  • 011455Z AUTO 26017KT 220V290 9999 FEW021 BKN025 BKN028 08/05 Q1019 NOSIG

METARs OBSOLETI :
  • 011425Z AUTO 26018G28KT 230V300 9999 FEW021 BKN027 OVC031 08/05 Q1019 NOSIG
  • 011355Z AUTO 26018G28KT 230V300 9999 FEW024 BKN030 BKN045 08/05 Q1019 NOSIG
  • 011325Z AUTO 26019KT 230V310 9999 SCT023 OVC027 08/05 Q1019 NOSIG
  • 011255Z AUTO 27018G28KT 230V310 9999 FEW022 BKN026 OVC030 08/05 Q1019 NOSIG
  • 011225Z AUTO 27020KT 240V300 9999 FEW023 BKN028 OVC032 08/04 Q1019 NOSIG

TAF TAF EHRD
Valido dal 01 a 12 ore il 02 a 18 ore UTC


011120Z 0112/0218 26023G33KT 9999 SCT030
BECMG 0114/0117 27017G27KT
PROB40
TEMPO 0118/0124 5000 SHRA RA BKN015 SCT020CB
BECMG 0123/0202 29013KT 7000 -RADZ BKN012
PROB30
TEMPO 0203/0215 3000 DZRA BKN006
BECMG 0215/0218 25012KT 9999 NSW SCT020



MetMap, La meteo Aeronautica in un colpo d'occhio ! - Copyright ORBIFLY Dicembre 2007 - Disclaimer

ORBIFLY MET'MAP TEAM :

Programmazione e sviluppo : Alexandra Zaïnal
Concezione : Baudouin d'Aumeries
Supporto tecnico e logistico : Manuel Goepfert
Aiuto : Marc-Olivier Méhu
Aiuto per la traduzione : Arnaldo La Scala




FONTI E CREDITI :

   NOAA